首页
METAR-TAF:

METAR-TAF

机场 :

圣胡安, 波多黎哥, 美国

纬度: 18-27-24N, 经度: 066-05-54W, 海拔: 3米

当前天气观测

该预报发布于11小时和1分钟前的22:45 UTC
风速8节,风向
温度 25°C
湿度 83%
气压 1014 hPa
能見度: 12.9公里
散云层高于3000英尺
多云层高于6000英尺
附近有阵雨

METAR: TJIG 212245Z 10008KT 8SM VCSH SCT030 BKN060 25/22 A2995 RMK VCSH E

时间: 05:46 (09:46 UTC)


TAF: 丢失

超过4000个机场的气象观测和天气预报(METAR&TAF报告)。

可查询的气象台以黄色和红色小点在地图上表示。

将鼠标移到小点上方,可查看气象台名称。

然后点击查看天气观测和预报。

如需切换地图:点击带黑十字的绿色按钮放大地图;点击带横线的绿色按钮缩小地图;或者点击绿色箭头查看邻近地区的地图。


METAR-TAF: